Eiyoshi Maru No.5 — JD2965 — position and weather

sailwx.info

Track history (hours):
 
Tides and Currents Weather Stations Pressure Air Temp Water Temp Dewpoint Dewpoint Depression Visibility Wind Speed Wind Dir Waves Ship Positions

Eiyoshi Maru No.5

Last reported at 2017-Oct-16 01:33 UTC. Time now 2017-Oct-18 16:37 UTC.
Position N 34°36' E 135°04'.

Length 64 m; draft 3.7 m.

Type: Cargo ship. MMSI: 431001092.

Date/timePositionNaut miles runAvg speedWind from/ knotsBaromVisibWave heightAir tempDewpointWater temp
2017-Oct-16 01:33N 34°36' E 135°04'0 9.2
2017-Oct-16 01:30N 34°36' E 135°04'5 9.2
2017-Oct-16 01:00N 34°31' E 135°05'510.0
2017-Oct-16 00:30N 34°26' E 135°05'11 9.2
2017-Oct-15 23:19N 34°15' E 135°03'310.1
2017-Oct-15 23:00N 34°12' E 135°02'510.2
2017-Oct-15 22:30N 34°07' E 135°02'  
2017-Oct-10 03:38N 34°39' E 135°27'110.1
2017-Oct-10 03:30N 34°39' E 135°25'5 9.1
2017-Oct-10 02:57N 34°34' E 135°23'4 0.2
2017-Oct-09 04:45N 34°31' E 135°24'1 4.1
2017-Oct-09 04:30N 34°32' E 135°24'4 8.9
2017-Oct-09 04:00N 34°31' E 135°19'510.6
2017-Oct-09 03:30N 34°28' E 135°13'1610.4
2017-Oct-09 02:00N 34°15' E 135°03'611.5
2017-Oct-09 01:30N 34°10' E 135°03'221 8.7
2017-Oct-08 00:07N 34°59' E 139°24'210.2
2017-Oct-07 23:58N 34°59' E 139°26'510.2
2017-Oct-07 23:29N 35°01' E 139°31'510.1
2017-Oct-07 23:00N 35°04' E 139°36'510.3
2017-Oct-07 22:30N 35°07' E 139°42'510.0
2017-Oct-07 22:00N 35°11' E 139°44'  
Track history (hours):
 
Tides and Currents Weather Stations Pressure Air Temp Water Temp Dewpoint Dewpoint Depression Visibility Wind Speed Wind Dir Waves Ship Positions

Eiyoshi Maru No.5

Last reported at 2017-Oct-16 01:33 UTC. Time now 2017-Oct-18 16:37 UTC.
Position N 34°36' E 135°04'.

Length 64 m; draft 3.7 m.

Type: Cargo ship. MMSI: 431001092.

Date/timePositionNaut miles runAvg speedWind from/ knotsBaromVisibWave heightAir tempDewpointWater temp
2017-Oct-16 01:33N 34°36' E 135°04'0 9.2
2017-Oct-16 01:30N 34°36' E 135°04'5 9.2
2017-Oct-16 01:00N 34°31' E 135°05'510.0
2017-Oct-16 00:30N 34°26' E 135°05'11 9.2
2017-Oct-15 23:19N 34°15' E 135°03'310.1
2017-Oct-15 23:00N 34°12' E 135°02'510.2
2017-Oct-15 22:30N 34°07' E 135°02'  
2017-Oct-10 03:38N 34°39' E 135°27'110.1
2017-Oct-10 03:30N 34°39' E 135°25'5 9.1
2017-Oct-10 02:57N 34°34' E 135°23'4 0.2
2017-Oct-09 04:45N 34°31' E 135°24'1 4.1
2017-Oct-09 04:30N 34°32' E 135°24'4 8.9
2017-Oct-09 04:00N 34°31' E 135°19'510.6
2017-Oct-09 03:30N 34°28' E 135°13'1610.4
2017-Oct-09 02:00N 34°15' E 135°03'611.5
2017-Oct-09 01:30N 34°10' E 135°03'221 8.7
2017-Oct-08 00:07N 34°59' E 139°24'210.2
2017-Oct-07 23:58N 34°59' E 139°26'510.2
2017-Oct-07 23:29N 35°01' E 139°31'510.1
2017-Oct-07 23:00N 35°04' E 139°36'510.3
2017-Oct-07 22:30N 35°07' E 139°42'510.0
2017-Oct-07 22:00N 35°11' E 139°44'  

Dump ship's entire track history